createdAt,value
2019-05-05T00:01:52.102Z,1.33
2019-05-05T00:04:45.514Z,1.63
2019-05-05T00:07:19.932Z,4.80
2019-05-05T00:09:49.912Z,3.23
2019-05-05T00:12:41.805Z,5.67
2019-05-05T00:15:36.829Z,1.87
2019-05-05T00:18:06.945Z,3.13
2019-05-05T00:20:36.955Z,3.40
2019-05-05T00:23:06.947Z,2.20
2019-05-05T00:25:37.017Z,3.10
2019-05-05T00:28:07.057Z,1.60
2019-05-05T00:30:37.031Z,2.10
2019-05-05T00:33:07.034Z,2.23
2019-05-05T00:35:37.061Z,1.53
2019-05-05T00:38:07.072Z,1.93
2019-05-05T00:40:37.096Z,1.70
2019-05-05T00:43:07.079Z,1.50
2019-05-05T00:45:38.711Z,1.20
2019-05-05T00:48:17.162Z,1.10
2019-05-05T00:50:47.117Z,1.97
2019-05-05T00:53:17.111Z,2.17
2019-05-05T00:55:47.101Z,1.97
2019-05-05T00:58:17.098Z,3.53
2019-05-05T01:01:17.936Z,1.93
2019-05-05T01:03:48.963Z,2.70
2019-05-05T01:06:21.665Z,1.70
2019-05-05T01:08:51.647Z,1.03
2019-05-05T01:11:21.697Z,1.97
2019-05-05T01:13:51.678Z,3.80
2019-05-05T01:16:21.634Z,1.17
2019-05-05T01:18:51.628Z,1.73
2019-05-05T01:21:21.602Z,1.60
2019-05-05T01:23:51.590Z,1.63
2019-05-05T01:26:21.669Z,1.40
2019-05-05T01:28:51.682Z,2.93
2019-05-05T01:31:22.438Z,3.47
2019-05-05T01:34:07.250Z,1.50
2019-05-05T01:36:37.212Z,1.37
2019-05-05T01:39:25.292Z,3.67
2019-05-05T01:41:58.079Z,9.03
2019-05-05T01:44:28.066Z,3.17
2019-05-05T01:46:58.030Z,1.20
2019-05-05T01:49:28.025Z,1.47
2019-05-05T01:51:58.055Z,1.67
2019-05-05T01:54:28.142Z,2.27
2019-05-05T01:56:58.155Z,2.40
2019-05-05T01:59:28.334Z,2.00
2019-05-05T02:01:58.327Z,1.20
2019-05-05T02:04:28.296Z,2.63
2019-05-05T02:06:58.259Z,1.90
2019-05-05T02:09:28.318Z,1.60
2019-05-05T02:11:58.350Z,1.87
2019-05-05T02:14:28.704Z,2.73
2019-05-05T02:16:58.670Z,1.20
2019-05-05T02:19:28.652Z,1.53
2019-05-05T02:21:58.595Z,3.10
2019-05-05T02:24:28.604Z,1.17
2019-05-05T02:26:58.586Z,1.10
2019-05-05T02:29:35.311Z,1.47
2019-05-05T02:32:25.634Z,2.00
2019-05-05T02:34:58.061Z,1.77
2019-05-05T02:37:28.037Z,1.70
2019-05-05T02:40:03.288Z,2.13
2019-05-05T02:42:30.208Z,2.90
2019-05-05T02:45:05.561Z,3.53
2019-05-05T02:47:59.298Z,1.30
2019-05-05T02:50:48.413Z,5.33
2019-05-05T02:53:04.143Z,1.83
2019-05-05T02:55:34.959Z,2.07
2019-05-05T02:58:04.938Z,1.43
2019-05-05T03:00:54.223Z,2.93
2019-05-05T03:03:24.257Z,2.07
2019-05-05T03:05:54.712Z,1.37
2019-05-05T03:08:24.986Z,1.77
2019-05-05T03:10:55.055Z,2.23
2019-05-05T03:13:25.833Z,1.17
2019-05-05T03:16:14.224Z,1.97
2019-05-05T03:18:44.147Z,18.03
2019-05-05T03:21:14.322Z,1.60
2019-05-05T03:23:44.280Z,3.67
2019-05-05T03:26:14.632Z,2.83
2019-05-05T03:28:48.847Z,2.17
2019-05-05T03:31:18.928Z,2.50
2019-05-05T03:33:49.296Z,1.70
2019-05-05T03:36:19.493Z,2.93
2019-05-05T03:38:49.538Z,3.70
2019-05-05T03:41:25.318Z,3.23
2019-05-05T03:44:14.009Z,1.87
2019-05-05T03:46:43.944Z,2.17
2019-05-05T03:49:14.231Z,5.20
2019-05-05T03:51:44.743Z,2.27
2019-05-05T03:54:14.888Z,2.00
2019-05-05T03:56:45.091Z,1.93
2019-05-05T03:59:15.046Z,1.43
2019-05-05T04:02:10.037Z,1.83
2019-05-05T04:04:46.919Z,2.10
2019-05-05T04:07:17.211Z,2.50
2019-05-05T04:09:48.078Z,3.07
2019-05-05T04:12:18.342Z,3.20
2019-05-05T04:14:48.304Z,2.53
2019-05-05T04:17:28.021Z,2.73
2019-05-05T04:19:58.501Z,5.13
2019-05-05T04:22:28.506Z,1.93
2019-05-05T04:24:58.485Z,4.63
2019-05-05T04:27:28.492Z,3.80
2019-05-05T04:29:58.462Z,5.80
2019-05-05T04:32:28.460Z,3.57
2019-05-05T04:34:58.413Z,2.40
2019-05-05T04:37:28.464Z,2.23
2019-05-05T04:39:58.425Z,1.93
2019-05-05T04:42:28.409Z,2.00
2019-05-05T04:44:58.473Z,4.17
2019-05-05T04:47:34.278Z,2.73
2019-05-05T04:50:20.975Z,1.70
2019-05-05T04:52:53.936Z,1.63
2019-05-05T04:55:24.448Z,2.73
2019-05-05T04:57:54.559Z,3.47
2019-05-05T05:00:24.514Z,3.07
2019-05-05T05:02:59.936Z,2.17
2019-05-05T05:05:48.873Z,2.27
2019-05-05T05:08:18.867Z,2.10
2019-05-05T05:10:48.977Z,3.00
2019-05-05T05:13:18.946Z,2.43
2019-05-05T05:15:48.985Z,1.60
2019-05-05T05:18:19.000Z,2.33
2019-05-05T05:20:48.993Z,3.10
2019-05-05T05:23:19.005Z,1.77
2019-05-05T05:25:48.965Z,1.60
2019-05-05T05:28:18.949Z,2.00
2019-05-05T05:30:48.945Z,2.50
2019-05-05T05:33:18.913Z,2.53
2019-05-05T05:35:48.890Z,5.13
2019-05-05T05:38:18.863Z,3.10
2019-05-05T05:41:00.791Z,3.07
2019-05-05T05:44:03.615Z,1.97
2019-05-05T05:47:03.487Z,4.13
2019-05-05T05:49:45.967Z,3.97
2019-05-05T05:52:19.193Z,2.53
2019-05-05T05:54:47.632Z,1.80
2019-05-05T05:57:17.598Z,2.40
2019-05-05T05:59:47.601Z,1.87
2019-05-05T06:02:17.605Z,4.00
2019-05-05T06:04:47.609Z,4.80
2019-05-05T06:07:17.585Z,2.83
2019-05-05T06:09:47.579Z,1.77
2019-05-05T06:12:17.579Z,2.37
2019-05-05T06:14:47.566Z,3.77
2019-05-05T06:17:17.522Z,4.80
2019-05-05T06:19:47.517Z,2.60
2019-05-05T06:22:28.077Z,3.23
2019-05-05T06:24:49.229Z,3.37
2019-05-05T06:27:19.230Z,4.47
2019-05-05T06:29:49.249Z,4.20
2019-05-05T06:32:19.234Z,3.70
2019-05-05T06:34:49.322Z,3.23
2019-05-05T06:37:19.318Z,5.80
2019-05-05T06:39:50.982Z,2.57
2019-05-05T06:42:30.134Z,2.27
2019-05-05T06:45:05.396Z,3.30
2019-05-05T06:47:39.426Z,2.93
2019-05-05T06:50:09.635Z,4.10
2019-05-05T06:52:44.198Z,3.53
2019-05-05T06:55:11.360Z,4.17
2019-05-05T06:57:41.352Z,4.97
2019-05-05T07:00:11.438Z,4.33
2019-05-05T07:02:41.468Z,4.10
2019-05-05T07:05:11.456Z,3.83
2019-05-05T07:07:43.440Z,2.40
2019-05-05T07:10:14.068Z,3.57
2019-05-05T07:12:44.196Z,3.73
2019-05-05T07:15:14.606Z,6.93
2019-05-05T07:17:44.642Z,5.33
2019-05-05T07:20:14.746Z,4.83
2019-05-05T07:22:58.353Z,3.27
2019-05-05T07:25:16.444Z,4.57
2019-05-05T07:27:46.406Z,4.17
2019-05-05T07:30:16.496Z,3.40
2019-05-05T07:32:46.496Z,1.80
2019-05-05T07:35:26.119Z,1.93
2019-05-05T07:37:56.595Z,2.23
2019-05-05T07:40:26.619Z,4.87
2019-05-05T07:42:56.594Z,3.13
2019-05-05T07:45:26.622Z,6.03
2019-05-05T07:47:56.631Z,1.70
2019-05-05T07:50:32.187Z,1.77
2019-05-05T07:53:11.409Z,1.87
2019-05-05T07:55:30.078Z,3.33
2019-05-05T07:58:00.092Z,2.40
2019-05-05T08:00:30.060Z,2.00
2019-05-05T08:03:00.085Z,3.47
2019-05-05T08:05:30.127Z,1.80
2019-05-05T08:08:00.110Z,3.43
2019-05-05T08:10:31.475Z,1.53
2019-05-05T08:13:04.636Z,2.10
2019-05-05T08:15:35.158Z,1.87
2019-05-05T08:18:27.072Z,3.10
2019-05-05T08:20:59.765Z,2.87
2019-05-05T08:23:38.611Z,2.90
2019-05-05T08:26:28.541Z,3.03
2019-05-05T08:29:26.623Z,1.53
2019-05-05T08:32:05.925Z,1.23
2019-05-05T08:34:35.933Z,1.10
2019-05-05T08:37:05.945Z,2.13
2019-05-05T08:39:35.921Z,1.17
2019-05-05T08:42:05.948Z,1.77
2019-05-05T08:44:35.944Z,1.90
2019-05-05T08:47:06.155Z,2.70
2019-05-05T08:49:36.141Z,3.80
2019-05-05T08:52:06.237Z,2.13
2019-05-05T08:54:36.238Z,0.87
2019-05-05T08:57:06.304Z,0.90
2019-05-05T08:59:36.276Z,2.30
2019-05-05T09:02:06.327Z,0.83
2019-05-05T09:04:36.341Z,2.27
2019-05-05T09:07:06.338Z,1.40
2019-05-05T09:09:36.384Z,1.20
2019-05-05T09:12:06.379Z,1.93
2019-05-05T09:14:36.429Z,2.10
2019-05-05T09:17:06.639Z,1.60
2019-05-05T09:19:36.682Z,0.80
2019-05-05T09:22:08.718Z,2.20
2019-05-05T09:25:04.280Z,2.90
2019-05-05T09:27:44.470Z,1.40
2019-05-05T09:30:15.172Z,1.17
2019-05-05T09:32:45.203Z,2.63
2019-05-05T09:35:15.191Z,1.30
2019-05-05T09:37:45.203Z,0.97
2019-05-05T09:40:18.289Z,0.93
2019-05-05T09:42:48.297Z,0.80
2019-05-05T09:45:18.324Z,1.00
2019-05-05T09:47:48.301Z,1.30
2019-05-05T09:50:18.317Z,1.63
2019-05-05T09:52:48.283Z,0.73
2019-05-05T09:55:18.313Z,3.10
2019-05-05T09:57:48.298Z,0.83
2019-05-05T10:00:18.300Z,2.10
2019-05-05T10:02:48.311Z,3.07
2019-05-05T10:05:18.337Z,2.40
2019-05-05T10:07:48.362Z,2.63
2019-05-05T10:10:18.412Z,1.40
2019-05-05T10:12:48.398Z,2.40
2019-05-05T10:15:18.414Z,1.63
2019-05-05T10:17:48.420Z,2.40
2019-05-05T10:20:18.493Z,2.77
2019-05-05T10:22:48.470Z,3.03
2019-05-05T10:25:53.972Z,3.50
2019-05-05T10:28:24.073Z,3.03
2019-05-05T10:30:54.109Z,1.77
2019-05-05T10:33:24.685Z,3.00
2019-05-05T10:35:54.798Z,1.93
2019-05-05T10:38:24.816Z,3.33
2019-05-05T10:40:54.841Z,1.70
2019-05-05T10:43:24.835Z,4.80
2019-05-05T10:45:54.877Z,1.43
2019-05-05T10:48:24.860Z,3.90
2019-05-05T10:50:55.373Z,6.83
2019-05-05T10:53:25.385Z,2.30
2019-05-05T10:55:55.383Z,3.90
2019-05-05T10:58:25.388Z,3.53
2019-05-05T11:01:03.948Z,4.60
2019-05-05T11:03:34.282Z,3.53
2019-05-05T11:06:04.731Z,3.90
2019-05-05T11:08:35.082Z,6.77
2019-05-05T11:11:05.106Z,4.43
2019-05-05T11:13:35.131Z,4.43
2019-05-05T11:16:05.151Z,4.63
2019-05-05T11:18:35.224Z,2.10
2019-05-05T11:21:05.497Z,5.00
2019-05-05T11:23:35.482Z,4.50
2019-05-05T11:26:05.481Z,4.10
2019-05-05T11:28:58.706Z,6.93
2019-05-05T11:31:23.845Z,4.17
2019-05-05T11:34:06.018Z,3.60
2019-05-05T11:36:44.700Z,5.30
2019-05-05T11:39:14.948Z,9.10
2019-05-05T11:41:44.997Z,6.20
2019-05-05T11:44:15.319Z,4.00
2019-05-05T11:46:45.419Z,4.07
2019-05-05T11:49:15.437Z,3.77
2019-05-05T11:51:45.460Z,6.90
2019-05-05T11:54:15.451Z,4.97
2019-05-05T11:56:45.487Z,5.50
2019-05-05T11:59:15.474Z,4.33
2019-05-05T12:01:45.521Z,4.73
2019-05-05T12:04:15.671Z,5.63
2019-05-05T12:06:45.711Z,4.70
2019-05-05T12:09:33.789Z,3.97
2019-05-05T12:12:03.886Z,6.33
2019-05-05T12:14:33.814Z,8.13
2019-05-05T12:17:04.577Z,7.73
2019-05-05T12:19:34.781Z,8.47
2019-05-05T12:22:04.908Z,5.90
2019-05-05T12:24:44.292Z,9.27
2019-05-05T12:27:33.995Z,8.87
2019-05-05T12:30:07.102Z,9.43
2019-05-05T12:32:37.248Z,8.57
2019-05-05T12:35:07.639Z,6.07
2019-05-05T12:37:38.580Z,11.63
2019-05-05T12:40:08.709Z,8.07
2019-05-05T12:42:38.773Z,7.63
2019-05-05T12:45:13.784Z,5.10
2019-05-05T12:48:02.356Z,6.20
2019-05-05T12:50:33.839Z,9.63
2019-05-05T12:53:04.161Z,8.97
2019-05-05T12:55:41.589Z,10.53
2019-05-05T12:58:05.908Z,8.27
2019-05-05T13:00:37.275Z,12.80
2019-05-05T13:03:07.300Z,8.47
2019-05-05T13:05:37.314Z,7.50
2019-05-05T13:08:07.334Z,8.13
2019-05-05T13:10:37.308Z,7.93
2019-05-05T13:13:07.405Z,6.90
2019-05-05T13:15:37.390Z,6.40
2019-05-05T13:18:07.406Z,13.87
2019-05-05T13:21:05.263Z,9.33
2019-05-05T13:23:50.804Z,9.00
2019-05-05T13:26:39.766Z,8.00
2019-05-05T13:29:09.808Z,4.87
2019-05-05T13:31:39.891Z,11.33
2019-05-05T13:34:09.926Z,5.23
2019-05-05T13:36:39.910Z,10.37
2019-05-05T13:39:10.136Z,7.93
2019-05-05T13:41:40.145Z,9.97
2019-05-05T13:47:27.442Z,5.93
2019-05-05T13:50:03.945Z,5.23
2019-05-05T13:52:33.948Z,7.17
2019-05-05T13:55:04.004Z,6.27
2019-05-05T13:57:34.026Z,7.57
2019-05-05T14:00:04.764Z,7.77
2019-05-05T14:02:34.851Z,13.20
2019-05-05T14:05:04.988Z,6.97
2019-05-05T14:07:34.997Z,8.87
2019-05-05T14:10:05.284Z,7.50
2019-05-05T14:12:35.263Z,6.63
2019-05-05T14:15:05.671Z,9.57
2019-05-05T14:17:35.679Z,7.37
2019-05-05T14:20:11.738Z,9.23
2019-05-05T14:22:37.583Z,7.93
2019-05-05T14:25:13.558Z,6.00
2019-05-05T14:27:43.707Z,7.57
2019-05-05T14:30:43.497Z,5.37
2019-05-05T14:33:25.885Z,6.77
2019-05-05T14:36:08.617Z,8.00
2019-05-05T14:38:50.459Z,8.07
2019-05-05T14:41:20.463Z,14.03
2019-05-05T14:43:50.502Z,8.70
2019-05-05T14:46:20.483Z,7.37
2019-05-05T14:48:50.521Z,4.60
2019-05-05T14:51:20.515Z,11.30
2019-05-05T14:53:50.575Z,6.37
2019-05-05T14:56:20.572Z,5.73
2019-05-05T14:58:50.596Z,4.90
2019-05-05T15:01:20.612Z,6.90
2019-05-05T15:03:50.676Z,6.73
2019-05-05T15:06:38.491Z,7.13
2019-05-05T15:12:56.332Z,7.87
2019-05-05T15:15:26.343Z,5.10
2019-05-05T15:17:56.357Z,6.93
2019-05-05T15:20:26.371Z,5.33
2019-05-05T15:22:56.392Z,5.07
2019-05-05T15:25:26.427Z,5.40
2019-05-05T15:27:56.385Z,5.57
2019-05-05T15:30:33.372Z,9.47
2019-05-05T15:33:04.633Z,6.90
2019-05-05T15:35:34.739Z,5.67
2019-05-05T15:38:04.727Z,5.73
2019-05-05T15:40:36.473Z,5.47
2019-05-05T15:43:06.550Z,8.43
2019-05-05T15:45:36.599Z,3.87
2019-05-05T15:48:06.673Z,7.97
2019-05-05T15:50:36.725Z,6.37
2019-05-05T15:53:06.738Z,6.17
2019-05-05T15:55:36.739Z,7.20
2019-05-05T15:58:06.853Z,8.00
2019-05-05T16:00:36.892Z,9.73
2019-05-05T16:03:07.325Z,5.80
2019-05-05T16:05:37.477Z,5.70
2019-05-05T16:08:07.498Z,5.77
2019-05-05T16:10:37.525Z,3.87
2019-05-05T16:13:07.546Z,5.10
2019-05-05T16:15:56.574Z,5.43
2019-05-05T16:18:48.745Z,7.87
2019-05-05T16:21:26.735Z,9.50
2019-05-05T16:24:03.514Z,5.13
2019-05-05T16:26:33.632Z,10.30
2019-05-05T16:29:04.269Z,5.80
2019-05-05T16:31:34.398Z,5.80
2019-05-05T16:37:23.525Z,8.67
2019-05-05T16:39:54.350Z,7.40
2019-05-05T16:42:24.487Z,5.00
2019-05-05T16:44:54.533Z,4.67
2019-05-05T16:47:24.552Z,4.60
2019-05-05T16:49:54.569Z,2.97
2019-05-05T16:52:30.622Z,5.77
2019-05-05T16:55:23.878Z,6.40
2019-05-05T16:57:55.116Z,4.33
2019-05-05T17:00:25.857Z,5.17
2019-05-05T17:02:55.975Z,6.30
2019-05-05T17:05:26.012Z,8.80
2019-05-05T17:07:58.458Z,6.30
2019-05-05T17:10:27.760Z,13.27
2019-05-05T17:12:59.472Z,5.77
2019-05-05T17:16:00.352Z,4.97
2019-05-05T17:18:40.090Z,5.50
2019-05-05T17:21:15.030Z,5.13
2019-05-05T17:23:45.164Z,7.67
2019-05-05T17:26:15.164Z,5.47
2019-05-05T17:28:45.208Z,7.40
2019-05-05T17:31:15.207Z,8.23
2019-05-05T17:33:45.310Z,5.57
2019-05-05T17:36:15.345Z,7.10
2019-05-05T17:38:45.405Z,5.20
2019-05-05T17:41:49.330Z,6.23
2019-05-05T17:44:38.289Z,3.23
2019-05-05T17:47:17.445Z,6.93
2019-05-05T17:50:14.353Z,6.50
2019-05-05T17:52:50.863Z,4.90
2019-05-05T17:55:28.223Z,9.37
2019-05-05T17:58:02.156Z,8.00
2019-05-05T18:00:34.094Z,10.67
2019-05-05T18:03:04.549Z,8.30
2019-05-05T18:10:04.133Z,5.63
2019-05-05T18:13:08.648Z,5.53
2019-05-05T18:15:57.591Z,3.40
2019-05-05T18:18:27.636Z,5.83
2019-05-05T18:20:57.688Z,5.50
2019-05-05T18:23:27.735Z,7.67
2019-05-05T18:25:57.746Z,6.60
2019-05-05T18:28:27.785Z,5.70
2019-05-05T18:30:57.783Z,6.60
2019-05-05T18:33:27.833Z,5.13
2019-05-05T18:35:57.822Z,7.60
2019-05-05T18:38:27.858Z,4.07
2019-05-05T18:41:00.423Z,3.67
2019-05-05T18:43:37.355Z,6.20
2019-05-05T18:46:07.446Z,7.33
2019-05-05T18:48:37.479Z,4.90
2019-05-05T18:51:07.499Z,8.47
2019-05-05T18:53:37.530Z,5.17
2019-05-05T18:56:07.519Z,8.57
2019-05-05T18:58:37.914Z,5.67
2019-05-05T19:01:45.075Z,5.27
2019-05-05T19:04:19.960Z,7.17
2019-05-05T19:07:17.904Z,3.93
2019-05-05T19:09:54.041Z,5.93
2019-05-05T19:12:19.640Z,3.33
2019-05-05T19:14:49.670Z,4.67
2019-05-05T19:17:19.665Z,5.33
2019-05-05T19:19:54.919Z,7.50
2019-05-05T19:22:25.133Z,8.97
2019-05-05T19:24:55.205Z,10.53
2019-05-05T19:27:25.207Z,5.90
2019-05-05T19:29:55.338Z,7.33
2019-05-05T19:32:25.325Z,7.90
2019-05-05T19:34:55.356Z,6.73
2019-05-05T19:37:25.363Z,4.70
2019-05-05T19:39:55.409Z,5.40
2019-05-05T19:42:25.407Z,6.70
2019-05-05T19:44:55.418Z,6.77
2019-05-05T19:47:25.433Z,8.97
2019-05-05T19:50:03.685Z,4.93
2019-05-05T19:52:34.860Z,5.77
2019-05-05T19:55:05.429Z,7.60
2019-05-05T19:57:36.119Z,6.87
2019-05-05T20:00:07.188Z,5.93
2019-05-05T20:02:37.197Z,7.40
2019-05-05T20:05:07.642Z,4.93
2019-05-05T20:07:37.668Z,6.63
2019-05-05T20:10:09.742Z,5.97
2019-05-05T20:12:39.882Z,5.37
2019-05-05T20:15:14.744Z,5.77
2019-05-05T20:17:44.806Z,4.37
2019-05-05T20:20:14.812Z,4.60
2019-05-05T20:22:45.009Z,3.57
2019-05-05T20:25:15.501Z,6.20
2019-05-05T20:27:45.527Z,7.73
2019-05-05T20:30:16.133Z,4.33
2019-05-05T20:32:56.331Z,7.73
2019-05-05T20:35:45.393Z,5.03
2019-05-05T20:38:29.429Z,4.63
2019-05-05T20:41:14.205Z,5.73
2019-05-05T20:43:45.109Z,6.53
2019-05-05T20:46:15.265Z,5.37
2019-05-05T20:48:45.294Z,5.77
2019-05-05T20:51:15.311Z,4.50
2019-05-05T20:53:48.931Z,9.00
2019-05-05T20:56:17.118Z,4.17
2019-05-05T20:58:47.085Z,6.10
2019-05-05T21:01:17.103Z,4.90
2019-05-05T21:03:47.167Z,11.27
2019-05-05T21:06:17.144Z,6.63
2019-05-05T21:08:47.281Z,4.93
2019-05-05T21:11:17.276Z,5.53
2019-05-05T21:13:47.286Z,11.77
2019-05-05T21:16:17.292Z,5.33
2019-05-05T21:18:47.301Z,5.47
2019-05-05T21:21:22.066Z,5.07
2019-05-05T21:23:55.561Z,8.07
2019-05-05T21:26:43.192Z,6.43
2019-05-05T21:29:14.028Z,4.23
2019-05-05T21:31:44.158Z,6.87
2019-05-05T21:34:14.202Z,4.73
2019-05-05T21:36:44.934Z,5.33
2019-05-05T21:39:15.117Z,6.33
2019-05-05T21:41:45.090Z,6.07
2019-05-05T21:44:15.102Z,8.87
2019-05-05T21:46:45.095Z,6.27
2019-05-05T21:49:15.111Z,6.70
2019-05-05T21:51:55.405Z,5.53
2019-05-05T21:54:45.037Z,7.37
2019-05-05T21:57:28.043Z,14.53
2019-05-05T21:59:58.996Z,6.50
2019-05-05T22:02:29.183Z,7.77
2019-05-05T22:04:59.250Z,6.53
2019-05-05T22:07:29.346Z,6.43
2019-05-05T22:09:59.405Z,6.90
2019-05-05T22:12:29.443Z,5.53
2019-05-05T22:14:59.458Z,4.47
2019-05-05T22:17:29.446Z,3.57
2019-05-05T22:20:15.306Z,6.77
2019-05-05T22:22:45.838Z,5.43
2019-05-05T22:25:15.833Z,7.43
2019-05-05T22:27:45.818Z,5.63
2019-05-05T22:30:15.834Z,5.40
2019-05-05T22:32:45.801Z,6.73
2019-05-05T22:35:16.328Z,7.30
2019-05-05T22:37:46.351Z,6.00
2019-05-05T22:40:24.149Z,8.50
2019-05-05T22:42:54.695Z,5.33
2019-05-05T22:45:24.868Z,3.00
2019-05-05T22:47:54.929Z,6.53
2019-05-05T22:50:25.519Z,6.07
2019-05-05T22:52:55.507Z,9.10
2019-05-05T22:55:25.495Z,3.57
2019-05-05T22:57:55.483Z,15.03
2019-05-05T23:00:29.457Z,9.07
2019-05-05T23:03:04.449Z,7.47
2019-05-05T23:05:43.928Z,5.90
2019-05-05T23:08:13.945Z,4.70
2019-05-05T23:10:43.945Z,5.73
2019-05-05T23:13:13.907Z,8.03
2019-05-05T23:15:50.366Z,7.93
2019-05-05T23:18:25.776Z,5.23
2019-05-05T23:21:15.864Z,6.53
2019-05-05T23:24:03.974Z,5.17
2019-05-05T23:26:36.008Z,11.90
2019-05-05T23:29:05.928Z,6.07
2019-05-05T23:31:35.936Z,7.23
2019-05-05T23:34:05.902Z,6.13
2019-05-05T23:36:35.901Z,8.43
2019-05-05T23:39:07.088Z,5.60
2019-05-05T23:41:37.407Z,7.37
2019-05-05T23:44:07.391Z,6.63
2019-05-05T23:46:37.389Z,4.40
2019-05-05T23:49:07.370Z,7.63
2019-05-05T23:51:37.360Z,5.30
2019-05-05T23:54:07.828Z,7.97
2019-05-05T23:56:37.834Z,4.90
2019-05-05T23:59:07.802Z,7.53
